Time;durP1;ratioP1;P1;durP2;ratioP2;P2;SDS_P1;SDS_P2;PMS_P1;PMS_P2;Temp;Humidity;BMP_temperature;BMP_pressure;BME280_temperature;BME280_humidity;BME280_pressure;Samples;Min_cycle;Max_cycle;Signal;HPM_P1;HPM_P2
2022/08/25 00:01:54;;;;;;;12.68;5.08;;;;;;;29.88;41.44;101137.81;1784282;80;20931;-50
2022/08/25 00:04:21;;;;;;;9.35;4.10;;;;;;;29.87;41.03;101136.11;1766152;80;20990;-48
2022/08/25 00:06:47;;;;;;;10.38;3.83;;;;;;;29.85;40.93;101134.08;1768177;80;21450;-48
2022/08/25 00:09:17;;;;;;;8.50;4.50;;;;;;;29.84;40.98;101139.11;1768295;80;21014;-49
2022/08/25 00:11:45;;;;;;;8.63;4.20;;;;;;;29.83;41.36;101129.35;1769154;80;21447;-52
2022/08/25 00:14:15;;;;;;;8.60;4.40;;;;;;;29.82;41.48;101126.83;1759984;80;21041;-49
2022/08/25 00:16:42;;;;;;;11.83;4.83;;;;;;;29.81;41.78;101133.17;1763520;80;20966;-50
2022/08/25 00:19:13;;;;;;;14.90;5.08;;;;;;;29.78;42.04;101135.64;1769657;80;20927;-49
2022/08/25 00:21:41;;;;;;;14.33;4.33;;;;;;;29.78;41.97;101136.98;1773081;80;21006;-48
2022/08/25 00:24:08;;;;;;;8.88;4.10;;;;;;;29.76;41.84;101136.28;1768913;80;20998;-48
2022/08/25 00:26:44;;;;;;;9.90;4.12;;;;;;;29.75;41.67;101145.34;1767560;80;20974;-55
2022/08/25 00:29:11;;;;;;;9.15;4.03;;;;;;;29.73;41.51;101140.62;1768071;80;20955;-51
2022/08/25 00:31:38;;;;;;;8.30;4.37;;;;;;;29.72;41.51;101137.09;1766801;80;21431;-48
2022/08/25 00:34:07;;;;;;;8.65;4.25;;;;;;;29.70;41.47;101136.84;1771701;80;20986;-54
2022/08/25 00:36:34;;;;;;;7.50;3.87;;;;;;;29.68;41.45;101137.00;1776138;80;20947;-49
2022/08/25 00:39:00;;;;;;;10.38;4.45;;;;;;;29.67;41.44;101139.84;1773318;80;20959;-48
2022/08/25 00:41:27;;;;;;;6.12;4.35;;;;;;;29.65;41.41;101134.63;1767549;80;20955;-51
2022/08/25 00:43:58;;;;;;;7.22;4.00;;;;;;;29.65;41.29;101133.77;1771648;80;21443;-51
2022/08/25 00:46:35;;;;;;;10.80;4.22;;;;;;;29.65;41.29;101128.41;1701546;83;20986;-49
2022/08/25 00:49:07;;;;;;;9.15;4.42;;;;;;;29.64;41.08;101130.72;1697766;83;21010;-48
2022/08/25 00:51:41;;;;;;;10.95;4.00;;;;;;;29.63;40.94;101135.75;1645599;86;20997;-49
2022/08/25 00:54:09;;;;;;;9.08;4.08;;;;;;;29.61;40.74;101137.73;1572811;90;21066;-50
2022/08/25 00:56:36;;;;;;;7.75;4.20;;;;;;;29.59;40.62;101141.06;1573448;90;21062;-49
2022/08/25 00:59:03;;;;;;;9.63;4.37;;;;;;;29.58;40.70;101132.66;1573624;90;21053;-49
2022/08/25 01:01:29;;;;;;;15.95;4.12;;;;;;;29.57;41.12;101135.83;1575585;90;21490;-48
2022/08/25 01:03:56;;;;;;;11.68;4.40;;;;;;;29.56;41.07;101133.30;1572157;90;21093;-48
2022/08/25 01:06:22;;;;;;;9.23;4.85;;;;;;;29.55;40.56;101136.98;1573841;90;21006;-50
2022/08/25 01:08:50;;;;;;;5.58;4.03;;;;;;;29.53;40.08;101140.31;1570030;90;21522;-49
2022/08/25 01:11:17;;;;;;;10.95;4.62;;;;;;;29.51;40.15;101135.06;1573245;90;21066;-48
2022/08/25 01:13:48;;;;;;;5.75;3.95;;;;;;;29.51;40.35;101142.29;1570882;90;21510;-49
2022/08/25 01:16:15;;;;;;;8.53;4.67;;;;;;;29.50;40.50;101138.75;1570250;90;20998;-49
2022/08/25 01:18:53;;;;;;;7.70;3.98;;;;;;;29.48;40.49;101141.23;1572920;90;21590;-48
2022/08/25 01:21:22;;;;;;;10.65;4.45;;;;;;;29.49;40.08;101136.23;1573428;90;21034;-48
2022/08/25 01:23:49;;;;;;;12.47;5.08;;;;;;;29.46;39.90;101131.14;1572943;90;21049;-51
2022/08/25 01:26:22;;;;;;;7.62;4.50;;;;;;;29.45;39.96;101132.15;1575037;90;21553;-48
2022/08/25 01:31:35;;;;;;;10.65;4.85;;;;;;;29.43;40.12;101135.47;1543578;92;21080;-48
2022/08/25 01:34:02;;;;;;;9.48;4.20;;;;;;;29.42;40.03;101143.14;1553293;92;21016;-48
2022/08/25 01:36:29;;;;;;;8.60;4.60;;;;;;;29.40;39.87;101138.42;1553398;92;21099;-49
2022/08/25 01:38:56;;;;;;;13.85;4.70;;;;;;;29.40;39.79;101146.47;1553321;92;21500;-48
2022/08/25 01:41:40;;;;;;;9.13;4.60;;;;;;;29.37;39.93;101145.41;1550963;92;21080;-50
2022/08/25 01:44:07;;;;;;;8.83;4.90;;;;;;;29.36;39.88;101143.73;1549164;92;21064;-48
2022/08/25 01:46:34;;;;;;;9.63;4.33;;;;;;;29.36;39.71;101142.39;1606156;88;21052;-50
2022/08/25 01:49:03;;;;;;;11.28;4.50;;;;;;;29.35;39.55;101138.85;1635126;85;21488;-48
2022/08/25 01:51:43;;;;;;;8.90;4.35;;;;;;;29.33;39.41;101144.00;1697527;83;20990;-48
2022/08/25 01:54:09;;;;;;;11.00;4.30;;;;;;;29.32;39.58;101145.86;1721231;83;20950;-48
2022/08/25 01:56:36;;;;;;;8.85;4.55;;;;;;;29.32;39.57;101142.33;1721151;83;21519;-48
2022/08/25 01:59:03;;;;;;;7.85;4.30;;;;;;;29.30;39.43;101143.81;1686397;85;21034;-51
2022/08/25 02:01:30;;;;;;;12.93;4.62;;;;;;;29.31;39.44;101140.62;1686609;85;21498;-54
2022/08/25 02:03:57;;;;;;;7.15;4.45;;;;;;;29.28;39.67;101143.61;1676573;85;21016;-48
2022/08/25 02:06:31;;;;;;;7.47;3.90;;;;;;;29.27;40.00;101145.92;1693231;83;21519;-49
2022/08/25 02:09:03;;;;;;;8.50;4.10;;;;;;;29.22;40.14;101146.86;1626185;88;20983;-48
2022/08/25 02:11:32;;;;;;;12.85;4.30;;;;;;;29.20;39.97;101140.80;1668764;85;21044;-47
2022/08/25 02:13:59;;;;;;;9.18;4.20;;;;;;;29.19;39.89;101138.61;1668938;86;20991;-49
2022/08/25 02:16:29;;;;;;;7.12;4.65;;;;;;;29.19;39.99;101144.45;1668793;85;20981;-51
2022/08/25 02:18:57;;;;;;;8.35;4.12;;;;;;;29.17;39.85;101139.24;1668823;85;20978;-47
2022/08/25 02:21:24;;;;;;;12.82;4.90;;;;;;;29.15;39.70;101139.88;1668761;85;21033;-50
2022/08/25 02:23:52;;;;;;;7.85;4.58;;;;;;;29.13;39.81;101139.63;1668770;85;21017;-50
2022/08/25 02:26:18;;;;;;;10.53;4.83;;;;;;;29.13;40.04;101144.99;1668671;85;21042;-49
2022/08/25 02:28:46;;;;;;;9.98;4.35;;;;;;;29.11;40.13;101145.14;1668748;85;20950;-51
2022/08/25 02:31:13;;;;;;;7.65;4.42;;;;;;;29.11;39.51;101146.97;1666454;85;20977;-49
2022/08/25 02:33:40;;;;;;;8.20;4.22;;;;;;;29.09;39.25;101139.56;1668777;85;21527;-50
2022/08/25 02:36:07;;;;;;;14.20;4.40;;;;;;;29.08;39.08;101145.93;1668839;86;20977;-48
2022/08/25 02:38:34;;;;;;;14.35;4.42;;;;;;;29.06;39.38;101150.07;1668795;85;21023;-49
2022/08/25 02:41:00;;;;;;;8.98;4.17;;;;;;;29.06;39.75;101148.73;1668780;85;20998;-48
2022/08/25 02:43:27;;;;;;;7.25;4.17;;;;;;;29.05;39.62;101155.58;1668772;85;21577;-48
2022/08/25 02:45:58;;;;;;;9.00;4.00;;;;;;;29.05;39.44;101152.90;1668552;85;20977;-49
2022/08/25 02:48:24;;;;;;;8.63;4.80;;;;;;;29.03;39.53;101148.17;1668868;85;20962;-49
2022/08/25 02:50:51;;;;;;;10.58;4.22;;;;;;;29.03;39.34;101154.88;1676043;85;20998;-50
2022/08/25 02:53:19;;;;;;;6.55;3.87;;;;;;;29.01;39.24;101155.52;1668752;85;21013;-50
2022/08/25 02:55:46;;;;;;;9.05;3.75;;;;;;;29.01;39.44;101151.49;1668678;85;21001;-48
2022/08/25 02:58:14;;;;;;;7.40;3.60;;;;;;;29.00;39.47;101156.52;1668814;85;21017;-49
2022/08/25 03:00:40;;;;;;;8.28;3.80;;;;;;;28.98;39.23;101153.47;1668815;86;20997;-49
2022/08/25 03:03:07;;;;;;;7.97;3.85;;;;;;;28.97;39.17;101157.12;1665137;85;21042;-48
2022/08/25 03:05:33;;;;;;;10.58;4.20;;;;;;;28.97;39.22;101163.00;1696894;82;20974;-49
2022/08/25 03:08:00;;;;;;;11.28;3.47;;;;;;;28.92;39.12;101159.88;1755899;82;20962;-47
2022/08/25 03:10:27;;;;;;;11.75;4.25;;;;;;;28.91;39.02;101160.36;1755799;82;20970;-49
2022/08/25 03:12:54;;;;;;;7.33;3.70;;;;;;;28.90;38.98;101157.84;1755780;82;20975;-50
2022/08/25 03:15:22;;;;;;;9.55;3.58;;;;;;;28.89;39.23;101159.66;1755503;82;21519;-48
2022/08/25 03:17:49;;;;;;;8.68;3.58;;;;;;;28.87;39.46;101162.97;1755559;82;20943;-49
2022/08/25 03:20:16;;;;;;;8.48;3.52;;;;;;;28.86;39.34;101168.00;1755445;82;21438;-48
2022/08/25 03:22:43;;;;;;;11.25;3.80;;;;;;;28.84;39.13;101164.61;1755262;82;21029;-50
2022/08/25 03:27:54;;;;;;;7.37;3.45;;;;;;;28.83;39.25;101166.92;1746090;82;20975;-48
2022/08/25 03:30:21;;;;;;;12.93;3.95;;;;;;;28.80;39.12;101155.17;1755751;82;20966;-48
2022/08/25 03:32:47;;;;;;;6.05;3.47;;;;;;;28.79;39.05;101158.81;1755767;82;20975;-48
2022/08/25 03:35:14;;;;;;;6.67;3.50;;;;;;;28.77;39.05;101160.78;1755704;82;20959;-49
2022/08/25 03:37:40;;;;;;;10.60;3.60;;;;;;;28.77;38.98;101160.78;1755609;82;20986;-48
2022/08/25 03:40:09;;;;;;;8.03;2.85;;;;;;;28.77;39.02;101160.78;1752226;82;20947;-52
2022/08/25 03:42:41;;;;;;;12.68;3.52;;;;;;;28.78;38.89;101164.32;1755394;82;21022;-48
2022/08/25 03:45:10;;;;;;;8.67;3.10;;;;;;;28.77;39.08;101166.14;1755823;82;20959;-51
2022/08/25 03:47:39;;;;;;;8.33;3.37;;;;;;;28.77;39.17;101159.45;1756084;82;21443;-49
2022/08/25 03:50:07;;;;;;;12.80;3.80;;;;;;;28.76;39.27;101166.30;1755642;82;20998;-49
2022/08/25 03:52:36;;;;;;;8.15;3.10;;;;;;;28.76;39.23;101160.94;1726235;82;20994;-48
2022/08/25 03:55:04;;;;;;;7.87;3.12;;;;;;;28.76;39.35;101157.77;1755762;82;20971;-48
2022/08/25 03:57:32;;;;;;;7.10;2.92;;;;;;;28.75;39.07;101158.74;1755805;82;21444;-49
2022/08/25 03:59:59;;;;;;;11.53;3.52;;;;;;;28.76;38.75;101156.44;1755489;82;21073;-49
2022/08/25 04:02:26;;;;;;;13.45;3.40;;;;;;;28.75;38.74;101154.73;1755490;82;21463;-48
2022/08/25 04:04:52;;;;;;;9.55;3.08;;;;;;;28.76;38.89;101156.44;1774778;80;20971;-48
2022/08/25 04:07:19;;;;;;;9.00;3.42;;;;;;;28.75;38.83;101152.05;1779699;80;21511;-48
2022/08/25 04:09:46;;;;;;;8.78;3.30;;;;;;;28.75;38.80;101149.37;1779673;80;20959;-48
2022/08/25 04:12:14;;;;;;;10.20;3.87;;;;;;;28.74;38.79;101159.75;1766350;81;21446;-50
2022/08/25 04:14:41;;;;;;;9.88;3.35;;;;;;;28.75;38.82;101154.73;1779855;81;20968;-50
2022/08/25 04:17:08;;;;;;;10.80;3.10;;;;;;;28.75;38.77;101154.73;1779765;81;21443;-48
2022/08/25 04:19:35;;;;;;;10.03;3.50;;;;;;;28.75;38.64;101154.73;1779588;81;20963;-48
2022/08/25 04:22:01;;;;;;;11.40;3.70;;;;;;;28.75;38.67;101148.03;1779425;80;21005;-50
2022/08/25 04:24:28;;;;;;;9.23;3.27;;;;;;;28.78;38.80;101151.78;1779639;81;20947;-49
2022/08/25 04:26:56;;;;;;;10.23;3.10;;;;;;;28.76;38.99;101145.72;1779601;80;20983;-48
2022/08/25 04:29:23;;;;;;;12.05;2.98;;;;;;;28.77;39.00;101147.39;1779688;80;20991;-53
2022/08/25 04:31:50;;;;;;;12.90;2.83;;;;;;;28.77;38.84;101144.72;1779684;80;21018;-47
2022/08/25 04:34:18;;;;;;;10.98;3.05;;;;;;;28.77;38.87;101133.19;1779647;80;20947;-54
2022/08/25 04:36:45;;;;;;;10.55;3.37;;;;;;;28.76;38.55;101145.72;1779671;80;20987;-49
2022/08/25 04:39:11;;;;;;;10.75;3.35;;;;;;;28.75;38.40;101145.84;1779645;80;21026;-48
2022/08/25 04:41:39;;;;;;;8.95;3.98;;;;;;;28.74;38.30;101142.34;1774955;80;20971;-49
2022/08/25 04:44:06;;;;;;;11.18;3.92;;;;;;;28.75;38.41;101142.67;1779601;80;20955;-48
2022/08/25 04:46:33;;;;;;;6.80;3.37;;;;;;;28.75;38.45;101140.00;1779595;80;20967;-48
2022/08/25 04:49:00;;;;;;;9.08;2.87;;;;;;;28.75;38.54;101138.66;1779707;81;20951;-48
2022/08/25 04:51:34;;;;;;;7.90;3.58;;;;;;;28.76;38.44;101135.01;1779596;80;21479;-47
2022/08/25 04:54:04;;;;;;;16.55;4.00;;;;;;;28.77;38.63;101143.38;1779576;81;20978;-48
2022/08/25 04:56:32;;;;;;;8.93;3.45;;;;;;;28.80;38.75;101138.24;1779423;81;20963;-50
2022/08/25 04:59:04;;;;;;;12.40;3.85;;;;;;;28.79;38.75;101137.91;1779716;80;20963;-50
2022/08/25 05:01:32;;;;;;;12.37;3.60;;;;;;;28.80;38.79;101140.44;1766482;80;20959;-47
2022/08/25 05:04:02;;;;;;;9.68;3.85;;;;;;;28.80;38.67;101136.42;1782031;80;21010;-49
2022/08/25 05:06:30;;;;;;;10.43;4.03;;;;;;;28.82;38.65;101128.23;1784230;80;20931;-50
2022/08/25 05:08:57;;;;;;;14.07;3.72;;;;;;;28.82;38.76;101129.09;1788139;80;21474;-48
2022/08/25 05:11:24;;;;;;;10.32;3.25;;;;;;;28.84;38.49;101130.28;1787883;80;21001;-50
2022/08/25 05:13:52;;;;;;;9.43;3.92;;;;;;;28.85;38.43;101127.45;1787866;80;21455;-51
2022/08/25 05:16:20;;;;;;;12.15;3.58;;;;;;;28.86;38.70;101127.81;1787869;80;20977;-49
2022/08/25 05:18:46;;;;;;;11.50;3.10;;;;;;;28.87;38.41;101125.99;1787906;80;21476;-48
2022/08/25 05:21:16;;;;;;;14.85;3.98;;;;;;;28.88;38.41;101124.50;1787912;80;21025;-49
2022/08/25 05:23:43;;;;;;;9.55;3.55;;;;;;;28.89;38.34;101122.16;1787704;80;20943;-48
2022/08/25 05:26:16;;;;;;;8.25;4.42;;;;;;;28.88;38.21;101117.80;1787969;80;21411;-49
2022/08/25 05:28:43;;;;;;;17.32;3.98;;;;;;;28.89;38.37;101126.69;1787881;80;20962;-49
2022/08/25 05:31:12;;;;;;;11.05;3.62;;;;;;;28.90;38.45;101126.55;1787912;80;20946;-49
2022/08/25 05:33:39;;;;;;;12.05;3.52;;;;;;;28.92;38.66;101129.07;1787786;80;21459;-48
2022/08/25 05:36:08;;;;;;;7.62;3.45;;;;;;;28.92;38.74;101125.05;1788079;80;20962;-48
2022/08/25 05:38:35;;;;;;;13.13;3.80;;;;;;;28.94;38.81;101127.95;1787997;80;20923;-50
2022/08/25 05:41:05;;;;;;;12.15;3.80;;;;;;;28.97;38.78;101132.19;1788113;80;20993;-48
2022/08/25 05:43:32;;;;;;;8.13;3.12;;;;;;;29.00;38.76;101125.70;1788081;80;20942;-49
2022/08/25 05:45:59;;;;;;;13.00;3.85;;;;;;;29.03;38.49;101123.58;1788019;80;21427;-49
2022/08/25 05:48:26;;;;;;;7.22;3.55;;;;;;;29.05;38.44;101126.95;1787849;80;20970;-47
2022/08/25 05:50:54;;;;;;;12.33;4.17;;;;;;;29.08;38.71;101127.17;1778138;80;20946;-53
2022/08/25 05:53:21;;;;;;;12.40;3.83;;;;;;;29.12;38.47;101129.92;1785920;80;20978;-48
2022/08/25 05:55:49;;;;;;;14.15;3.12;;;;;;;29.14;38.55;101131.96;1788018;80;20927;-50
2022/08/25 05:58:15;;;;;;;7.25;3.22;;;;;;;29.20;38.41;101128.25;1706081;80;20974;-48
2022/08/25 06:00:42;;;;;;;12.03;3.67;;;;;;;29.21;38.27;101145.16;1787674;80;20962;-48
2022/08/25 06:03:09;;;;;;;14.33;4.17;;;;;;;29.23;38.30;101129.28;1787968;80;21410;-49
2022/08/25 06:05:36;;;;;;;9.00;3.37;;;;;;;29.28;38.44;101135.56;1788002;80;21002;-48
2022/08/25 06:08:02;;;;;;;13.78;3.62;;;;;;;29.33;38.33;101142.17;1781346;80;20963;-49
2022/08/25 06:10:29;;;;;;;11.45;3.92;;;;;;;29.40;38.25;101142.45;1787733;80;20967;-51
2022/08/25 06:12:56;;;;;;;10.93;3.37;;;;;;;29.46;38.27;101142.72;1787742;80;20966;-48
2022/08/25 06:15:23;;;;;;;14.78;4.20;;;;;;;29.52;38.35;101139.45;1766013;80;21419;-48
2022/08/25 06:17:50;;;;;;;15.90;4.12;;;;;;;29.60;38.25;101140.06;1788090;80;21006;-49
2022/08/25 06:20:20;;;;;;;12.05;4.10;;;;;;;29.66;38.20;101139.47;1788024;80;20931;-48
2022/08/25 06:22:47;;;;;;;18.15;4.12;;;;;;;29.78;37.98;101137.50;1785097;80;20962;-51
2022/08/25 06:25:16;;;;;;;15.45;4.10;;;;;;;29.88;37.65;101144.52;1788160;80;21002;-49
2022/08/25 06:27:44;;;;;;;12.25;3.50;;;;;;;29.97;37.58;101137.39;1787949;80;20959;-49
2022/08/25 06:30:14;;;;;;;16.20;4.00;;;;;;;30.04;37.90;101137.17;1788012;80;21495;-50
2022/08/25 06:32:42;;;;;;;11.33;3.50;;;;;;;30.11;37.95;101139.61;1788056;80;21498;-48
2022/08/25 06:35:12;;;;;;;14.40;4.05;;;;;;;30.16;37.85;101131.45;1788002;80;20935;-49
2022/08/25 06:37:40;;;;;;;13.15;3.87;;;;;;;30.20;37.46;101138.20;1787973;80;21076;-49
2022/08/25 06:40:08;;;;;;;14.90;4.67;;;;;;;30.24;37.53;101130.69;1788023;80;20990;-48
2022/08/25 06:42:35;;;;;;;15.75;4.53;;;;;;;30.27;37.32;101125.89;1767662;80;21482;-50
2022/08/25 06:45:01;;;;;;;13.00;4.70;;;;;;;30.30;37.22;101124.26;1787843;80;20994;-52
2022/08/25 06:47:28;;;;;;;15.65;4.90;;;;;;;30.31;36.96;101125.96;1788153;80;21478;-53
2022/08/25 06:49:55;;;;;;;14.05;4.03;;;;;;;30.33;36.93;101128.00;1787779;80;20943;-48
2022/08/25 06:52:22;;;;;;;19.23;4.72;;;;;;;30.36;37.11;101126.83;1787963;80;21001;-49
2022/08/25 06:54:48;;;;;;;14.13;4.47;;;;;;;30.39;36.98;101130.08;1787915;80;20966;-50
2022/08/25 06:57:15;;;;;;;18.82;4.00;;;;;;;30.42;36.98;101123.05;1788029;80;20955;-48
2022/08/25 06:59:42;;;;;;;15.25;4.00;;;;;;;30.46;36.53;101125.77;1787985;80;20958;-48
2022/08/25 07:02:09;;;;;;;13.48;4.33;;;;;;;30.47;36.47;101118.56;1787963;80;20962;-49
2022/08/25 07:04:35;;;;;;;16.15;4.05;;;;;;;30.48;36.90;101130.98;1785473;80;21053;-50
2022/08/25 07:07:02;;;;;;;14.60;4.05;;;;;;;30.50;36.98;101124.47;1779714;80;21428;-51
2022/08/25 07:09:29;;;;;;;22.15;4.37;;;;;;;30.55;37.05;101128.05;1779706;80;20982;-49
2022/08/25 07:11:56;;;;;;;14.18;3.75;;;;;;;30.61;37.06;101129.27;1779692;81;21427;-52
2022/08/25 07:14:22;;;;;;;15.53;4.33;;;;;;;30.66;36.76;101118.92;1779739;81;21485;-48
2022/08/25 07:16:50;;;;;;;12.58;4.40;;;;;;;30.69;36.51;101118.59;1779712;80;21439;-51
2022/08/25 07:19:19;;;;;;;15.45;4.28;;;;;;;30.71;36.44;101123.35;1779842;81;20987;-48
2022/08/25 07:21:45;;;;;;;12.78;3.95;;;;;;;30.74;36.47;101133.77;1779747;81;20982;-47
2022/08/25 07:24:13;;;;;;;22.42;4.95;;;;;;;30.79;36.46;101139.54;1779700;81;20967;-48
2022/08/25 07:26:41;;;;;;;21.65;5.15;;;;;;;30.84;36.34;101138.07;1779388;80;20958;-48
2022/08/25 07:29:22;;;;;;;11.78;4.35;;;;;;;30.91;36.02;101132.96;1779857;81;21460;-51
2022/08/25 07:31:49;;;;;;;11.45;3.83;;;;;;;30.98;36.05;101127.30;1613844;88;21014;-50
2022/08/25 07:36:58;;;;;;;13.55;3.80;;;;;;;31.14;36.11;101121.55;1538130;92;21017;-49
2022/08/25 07:39:25;;;;;;;15.72;3.67;;;;;;;31.20;35.62;101112.85;1534936;92;21017;-49
2022/08/25 07:41:52;;;;;;;15.88;4.25;;;;;;;31.23;35.61;101115.24;1534305;92;21037;-54
2022/08/25 07:44:20;;;;;;;21.73;5.17;;;;;;;31.26;35.76;101120.81;1532978;91;21051;-50
2022/08/25 07:46:47;;;;;;;14.95;4.05;;;;;;;31.29;35.82;101113.76;1533881;92;21107;-49
2022/08/25 07:49:14;;;;;;;12.05;4.00;;;;;;;31.33;35.48;101107.06;1536146;92;21058;-50
2022/08/25 07:51:41;;;;;;;18.45;4.80;;;;;;;31.34;34.95;101107.42;1536477;92;21580;-48
2022/08/25 07:54:08;;;;;;;15.88;3.75;;;;;;;31.32;34.90;101102.70;1537065;92;21027;-50
2022/08/25 07:56:34;;;;;;;11.57;4.20;;;;;;;31.33;34.65;101108.41;1536230;92;21009;-50
2022/08/25 07:59:01;;;;;;;14.68;4.10;;;;;;;31.31;34.83;101109.06;1535462;92;21486;-48
2022/08/25 08:01:27;;;;;;;17.52;4.55;;;;;;;31.32;35.18;101104.87;1537999;92;21017;-48
2022/08/25 08:03:54;;;;;;;14.47;4.05;;;;;;;31.34;35.03;101114.14;1534131;92;21609;-49
2022/08/25 08:06:22;;;;;;;17.07;4.92;;;;;;;31.36;34.73;101111.28;1544402;91;21061;-50
2022/08/25 08:08:50;;;;;;;14.45;4.65;;;;;;;31.36;34.35;101114.83;1536461;91;21066;-50
2022/08/25 08:11:25;;;;;;;17.67;4.80;;;;;;;31.35;34.49;101107.74;1576731;88;21101;-51
2022/08/25 08:13:53;;;;;;;12.55;4.35;;;;;;;31.35;34.45;101109.09;1582140;90;21577;-50
2022/08/25 08:16:20;;;;;;;22.13;4.85;;;;;;;31.37;34.40;101108.43;1583100;90;21053;-49
2022/08/25 08:18:48;;;;;;;13.30;4.40;;;;;;;31.40;34.41;101110.84;1583138;90;21046;-53
2022/08/25 08:21:22;;;;;;;14.58;4.00;;;;;;;31.44;34.38;101113.56;1582460;90;20987;-56
2022/08/25 08:23:49;;;;;;;16.17;3.90;;;;;;;31.47;33.79;101110.54;1529138;93;21063;-54
2022/08/25 08:26:16;;;;;;;18.92;4.03;;;;;;;31.49;33.76;101108.53;1527211;93;21013;-53
2022/08/25 08:28:44;;;;;;;18.57;4.42;;;;;;;31.53;33.99;101108.55;1598415;87;21057;-50
2022/08/25 08:31:10;;;;;;;12.68;4.05;;;;;;;31.57;33.40;101104.58;1621470;87;21021;-50
2022/08/25 08:33:38;;;;;;;16.57;4.80;;;;;;;31.60;33.13;101096.16;1621433;88;21103;-49
2022/08/25 08:36:08;;;;;;;15.38;4.00;;;;;;;31.63;32.80;101099.89;1621488;87;21049;-49
2022/08/25 08:38:37;;;;;;;15.08;3.98;;;;;;;31.66;32.71;101096.87;1621271;87;21030;-50
2022/08/25 08:44:48;;;;;;;12.68;3.65;;;;;;;31.70;33.14;101083.44;1619617;87;21037;-50
2022/08/25 08:47:44;;;;;;;14.10;4.03;;;;;;;31.77;32.62;101083.64;1621529;87;20997;-50
2022/08/25 08:50:22;;;;;;;13.35;3.92;;;;;;;31.81;32.31;101088.54;1611057;89;21025;-49
2022/08/25 08:52:57;;;;;;;14.47;3.70;;;;;;;31.87;32.49;101093.77;1602814;89;21005;-50
2022/08/25 08:55:53;;;;;;;13.78;4.08;;;;;;;31.94;32.38;101099.70;1600048;89;21013;-50
2022/08/25 08:58:29;;;;;;;16.27;4.22;;;;;;;32.00;32.62;101092.85;1603480;87;21061;-50
2022/08/25 09:01:00;;;;;;;15.25;4.62;;;;;;;32.09;32.38;101092.70;1607209;87;21042;-48
2022/08/25 09:03:36;;;;;;;;;;;;;;;32.16;32.39;101082.13;1608047;89;21107;-48
2022/08/25 09:06:12;;;;;;;13.22;3.60;;;;;;;32.24;32.28;101081.30;1597182;89;20115;-49
2022/08/25 09:08:42;;;;;;;16.05;4.47;;;;;;;32.30;31.97;101076.09;1515604;94;21010;-49
2022/08/25 09:11:30;;;;;;;13.10;3.98;;;;;;;32.36;31.95;101077.27;1557199;91;20994;-52
2022/08/25 09:14:20;;;;;;;15.10;3.77;;;;;;;32.44;32.06;101077.31;1540373;93;21052;-49
2022/08/25 09:17:05;;;;;;;12.07;4.05;;;;;;;32.53;32.01;101081.72;1566086;91;21032;-48
2022/08/25 09:23:01;;;;;;;13.03;3.87;;;;;;;32.66;31.61;101067.25;1494816;96;21078;-50
2022/08/25 09:26:21;;;;;;;13.38;3.62;;;;;;;32.75;31.86;101060.84;1493380;96;21103;-52
2022/08/25 09:29:00;;;;;;;17.02;4.20;;;;;;;32.80;31.84;101055.80;1494394;96;21088;-50
2022/08/25 09:31:38;;;;;;;19.55;3.83;;;;;;;32.83;32.01;101052.25;1494884;96;21526;-48
2022/08/25 09:34:12;;;;;;;12.15;3.62;;;;;;;32.86;32.28;101057.81;1378760;103;21604;-53
2022/08/25 09:36:39;;;;;;;13.83;4.87;;;;;;;32.87;32.10;101055.47;1356571;105;21674;-50
2022/08/25 09:39:06;;;;;;;14.28;3.90;;;;;;;32.89;32.32;101059.66;1358873;105;21130;-48
2022/08/25 09:41:51;;;;;;;9.43;3.60;;;;;;;32.93;32.55;101057.48;1353707;105;21614;-50
2022/08/25 09:44:33;;;;;;;9.13;3.47;;;;;;;32.97;32.69;101060.17;1313795;108;21137;-50
2022/08/25 09:47:24;;;;;;;13.30;3.75;;;;;;;33.02;33.20;101055.13;1299682;110;21588;-48
2022/08/25 09:50:01;;;;;;;9.78;3.83;;;;;;;33.07;33.70;101058.66;1263723;112;21654;-50
2022/08/25 09:52:34;;;;;;;11.73;3.83;;;;;;;33.13;34.02;101056.13;1275347;112;21170;-50
2022/08/25 09:55:09;;;;;;;18.75;4.37;;;;;;;33.18;34.12;101061.84;1276516;112;21152;-47
2022/08/25 09:57:45;;;;;;;16.00;4.40;;;;;;;33.22;34.58;101063.70;1268340;112;21586;-48
2022/08/25 10:00:23;;;;;;;12.80;4.10;;;;;;;33.27;35.39;101061.31;1247285;113;21707;-49
2022/08/25 10:03:15;;;;;;;16.42;3.92;;;;;;;33.32;35.00;101065.20;1260335;113;21213;-48
2022/08/25 10:06:04;;;;;;;17.73;4.28;;;;;;;33.38;33.92;101069.91;1243599;115;21231;-48
2022/08/25 10:08:37;;;;;;;11.20;4.45;;;;;;;33.41;33.52;101062.80;1216399;117;21644;-51
2022/08/25 10:11:14;;;;;;;10.93;3.75;;;;;;;33.46;32.93;101061.78;1260615;113;21248;-49
2022/08/25 10:13:50;;;;;;;16.00;4.00;;;;;;;33.46;32.21;101053.69;1257240;113;21165;-48
2022/08/25 10:16:30;;;;;;;9.25;3.08;;;;;;;33.47;32.19;101059.41;1263717;113;21122;-48
2022/08/25 10:19:12;;;;;;;13.25;3.77;;;;;;;33.48;32.04;101053.01;1262642;113;21141;-48
2022/08/25 10:21:42;;;;;;;10.10;2.75;;;;;;;33.52;32.14;101060.27;1266967;112;21697;-50
2022/08/25 10:24:10;;;;;;;13.75;3.33;;;;;;;33.53;31.60;101050.64;1279771;109;21116;-50
2022/08/25 10:27:00;;;;;;;11.00;3.37;;;;;;;33.56;31.59;101046.77;1294390;110;21636;-48
2022/08/25 10:29:59;;;;;;;9.38;3.50;;;;;;;33.58;31.55;101042.88;1293760;110;21153;-48
2022/08/25 10:32:46;;;;;;;8.50;3.55;;;;;;;33.62;31.33;101038.81;1374871;102;21097;-48
2022/08/25 10:35:18;;;;;;;8.50;3.02;;;;;;;33.62;31.47;101037.47;1427137;100;21069;-49
2022/08/25 10:38:27;;;;;;;12.90;3.35;;;;;;;33.62;31.20;101037.47;1447244;98;21590;-51
2022/08/25 10:41:25;;;;;;;10.60;3.40;;;;;;;33.62;31.08;101030.72;1455454;97;21039;-50
2022/08/25 10:47:30;;;;;;;10.10;3.40;;;;;;;33.61;31.33;101026.33;1470578;97;21047;-49
2022/08/25 10:50:23;;;;;;;;;;;;;;;33.67;31.33;101037.45;1472739;97;21560;-48
2022/08/25 10:53:14;;;;;;;8.13;3.00;;;;;;;33.72;31.03;101031.03;1455844;98;20116;-49
2022/08/25 10:56:01;;;;;;;11.70;3.20;;;;;;;33.76;31.45;101025.61;1434903;100;21055;-54
2022/08/25 10:58:58;;;;;;;10.48;3.35;;;;;;;33.82;31.34;101024.91;1436888;98;21519;-52
2022/08/25 11:01:47;;;;;;;7.22;2.65;;;;;;;33.86;31.35;101024.34;1555410;91;20999;-49
2022/08/25 11:04:39;;;;;;;9.23;3.02;;;;;;;33.91;30.78;101021.13;1564318;91;21061;-50
2022/08/25 11:07:14;;;;;;;8.83;3.15;;;;;;;33.94;30.48;101016.73;1562259;91;21619;-51
2022/08/25 11:09:44;;;;;;;9.88;2.98;;;;;;;33.95;30.22;101017.05;1556839;91;21070;-48
2022/08/25 11:12:15;;;;;;;5.85;2.65;;;;;;;33.96;30.34;101012.84;1531703;91;21020;-49
2022/08/25 11:15:04;;;;;;;11.93;3.15;;;;;;;33.99;30.46;101015.67;1566176;90;20991;-51
2022/08/25 11:18:01;;;;;;;4.58;2.42;;;;;;;34.01;30.32;101015.02;1632654;87;21057;-52
2022/08/25 11:20:33;;;;;;;6.95;2.58;;;;;;;34.04;30.45;101013.33;1592337;89;21042;-51
2022/08/25 11:23:29;;;;;;;9.13;3.40;;;;;;;34.04;30.23;101005.22;1564439;91;21087;-50
2022/08/25 11:26:12;;;;;;;6.83;2.40;;;;;;;34.05;30.32;101006.89;1534954;93;21134;-50
2022/08/25 11:29:13;;;;;;;6.97;2.98;;;;;;;34.05;30.32;101004.19;1460841;97;21054;-50
2022/08/25 11:31:44;;;;;;;8.15;3.12;;;;;;;34.02;30.51;101008.11;1451849;97;21594;-51
2022/08/25 11:34:14;;;;;;;11.28;3.35;;;;;;;34.04;31.09;101010.63;1463915;97;21030;-53
2022/08/25 11:37:02;;;;;;;7.28;2.50;;;;;;;34.06;31.06;101010.78;1460506;98;21073;-49
2022/08/25 11:39:56;;;;;;;8.55;3.10;;;;;;;34.11;31.18;101007.52;1479435;96;21068;-49
2022/08/25 11:43:01;;;;;;;8.30;2.70;;;;;;;34.15;31.25;101009.69;1469962;96;21063;-48
2022/08/25 11:45:45;;;;;;;9.73;2.77;;;;;;;34.21;31.38;101006.80;1472586;96;21007;-48
2022/08/25 11:48:38;;;;;;;4.50;2.72;;;;;;;34.25;31.37;101001.37;1464593;96;21007;-49
2022/08/25 11:51:07;;;;;;;8.68;3.22;;;;;;;34.27;31.97;100998.80;1473203;96;21042;-50
2022/08/25 11:53:42;;;;;;;15.38;3.42;;;;;;;34.32;32.58;101000.96;1465172;96;21104;-51
2022/08/25 11:56:11;;;;;;;9.63;3.37;;;;;;;34.36;33.10;101007.69;1478113;96;21035;-50
2022/08/25 11:58:48;;;;;;;9.25;2.98;;;;;;;34.39;33.15;101012.73;1478123;96;21071;-49